sensor_id;sensor_type;location;lat;lon;timestamp;pressure;altitude;pressure_sealevel;temperature;humidity
61361;BME280;47232;47.506;18.936;2022-11-04T00:01:30;98102.67;;;11.08;76.32
61361;BME280;47232;47.506;18.936;2022-11-04T00:03:55;98098.12;;;11.04;76.54
61361;BME280;47232;47.506;18.936;2022-11-04T00:06:21;98097.90;;;11.03;76.68
61361;BME280;47232;47.506;18.936;2022-11-04T00:08:52;98098.67;;;11.07;76.72
61361;BME280;47232;47.506;18.936;2022-11-04T00:11:18;98094.91;;;11.10;76.93
61361;BME280;47232;47.506;18.936;2022-11-04T00:14:04;98089.95;;;11.13;76.80
61361;BME280;47232;47.506;18.936;2022-11-04T00:16:30;98090.02;;;11.17;76.84
61361;BME280;47232;47.506;18.936;2022-11-04T00:19:14;98084.40;;;11.20;76.90
61361;BME280;47232;47.506;18.936;2022-11-04T00:21:39;98086.10;;;11.22;76.80
61361;BME280;47232;47.506;18.936;2022-11-04T00:24:23;98081.23;;;11.22;76.66
61361;BME280;47232;47.506;18.936;2022-11-04T00:29:53;98066.71;;;11.17;76.74
61361;BME280;47232;47.506;18.936;2022-11-04T00:32:18;98063.70;;;11.14;76.79
61361;BME280;47232;47.506;18.936;2022-11-04T00:35:03;98058.17;;;11.12;76.80
61361;BME280;47232;47.506;18.936;2022-11-04T00:37:28;98057.25;;;11.12;76.69
61361;BME280;47232;47.506;18.936;2022-11-04T00:39:54;98054.48;;;11.12;76.84
61361;BME280;47232;47.506;18.936;2022-11-04T00:42:19;98053.50;;;11.13;77.02
61361;BME280;47232;47.506;18.936;2022-11-04T00:44:45;98054.39;;;11.17;76.84
61361;BME280;47232;47.506;18.936;2022-11-04T00:47:10;98048.40;;;11.20;76.88
61361;BME280;47232;47.506;18.936;2022-11-04T00:49:35;98045.39;;;11.23;76.81
61361;BME280;47232;47.506;18.936;2022-11-04T00:52:01;98040.01;;;11.23;76.73
61361;BME280;47232;47.506;18.936;2022-11-04T00:54:26;98038.73;;;11.22;76.79
61361;BME280;47232;47.506;18.936;2022-11-04T00:56:51;98043.28;;;11.20;76.74
61361;BME280;47232;47.506;18.936;2022-11-04T00:59:18;98048.40;;;11.20;76.75
61361;BME280;47232;47.506;18.936;2022-11-04T01:01:44;98048.00;;;11.19;76.67
61361;BME280;47232;47.506;18.936;2022-11-04T01:04:09;98046.23;;;11.15;76.54
61361;BME280;47232;47.506;18.936;2022-11-04T01:06:34;98044.46;;;11.14;76.67
61361;BME280;47232;47.506;18.936;2022-11-04T01:09:03;98041.09;;;11.16;76.79
61361;BME280;47232;47.506;18.936;2022-11-04T01:11:29;98043.81;;;11.22;76.80
61361;BME280;47232;47.506;18.936;2022-11-04T01:13:56;98045.06;;;11.26;76.73
61361;BME280;47232;47.506;18.936;2022-11-04T01:16:23;98048.20;;;11.29;76.72
61361;BME280;47232;47.506;18.936;2022-11-04T01:18:49;98040.39;;;11.30;76.78
61361;BME280;47232;47.506;18.936;2022-11-04T01:21:15;98037.02;;;11.31;76.48
61361;BME280;47232;47.506;18.936;2022-11-04T01:23:42;98032.05;;;11.30;76.53
61361;BME280;47232;47.506;18.936;2022-11-04T01:26:20;98027.65;;;11.29;76.52
61361;BME280;47232;47.506;18.936;2022-11-04T01:28:46;98019.29;;;11.28;76.33
61361;BME280;47232;47.506;18.936;2022-11-04T01:31:14;98016.30;;;11.28;76.41
61361;BME280;47232;47.506;18.936;2022-11-04T01:33:40;98016.70;;;11.31;76.47
61361;BME280;47232;47.506;18.936;2022-11-04T01:36:07;98016.31;;;11.31;76.39
61361;BME280;47232;47.506;18.936;2022-11-04T01:38:33;98013.20;;;11.34;76.46
61361;BME280;47232;47.506;18.936;2022-11-04T01:40:59;98004.15;;;11.39;76.54
61361;BME280;47232;47.506;18.936;2022-11-04T01:46:36;97976.23;;;11.41;76.41
61361;BME280;47232;47.506;18.936;2022-11-04T01:49:25;97971.65;;;11.43;76.21
61361;BME280;47232;47.506;18.936;2022-11-04T01:51:57;97973.88;;;11.42;76.29
61361;BME280;47232;47.506;18.936;2022-11-04T01:54:25;97980.45;;;11.41;76.18
61361;BME280;47232;47.506;18.936;2022-11-04T01:56:51;97976.38;;;11.36;76.07
61361;BME280;47232;47.506;18.936;2022-11-04T01:59:21;97970.59;;;11.34;76.40
61361;BME280;47232;47.506;18.936;2022-11-04T02:01:48;97957.73;;;11.33;76.31
61361;BME280;47232;47.506;18.936;2022-11-04T02:04:14;97952.52;;;11.32;76.45
61361;BME280;47232;47.506;18.936;2022-11-04T02:06:57;97952.04;;;11.34;76.57
61361;BME280;47232;47.506;18.936;2022-11-04T02:09:26;97950.59;;;11.36;76.59
61361;BME280;47232;47.506;18.936;2022-11-04T02:11:53;97948.23;;;11.41;76.73
61361;BME280;47232;47.506;18.936;2022-11-04T02:14:38;97947.70;;;11.45;76.32
61361;BME280;47232;47.506;18.936;2022-11-04T02:17:27;97947.13;;;11.46;76.44
61361;BME280;47232;47.506;18.936;2022-11-04T02:40:21;97906.41;;;11.44;76.82
61361;BME280;47232;47.506;18.936;2022-11-04T02:43:15;97893.23;;;11.48;76.77
61361;BME280;47232;47.506;18.936;2022-11-04T02:45:51;97897.38;;;11.50;76.76
61361;BME280;47232;47.506;18.936;2022-11-04T02:48:34;97897.96;;;11.47;76.78
61361;BME280;47232;47.506;18.936;2022-11-04T02:53:49;97892.97;;;11.43;76.73
61361;BME280;47232;47.506;18.936;2022-11-04T02:56:21;97901.08;;;11.38;76.73
61361;BME280;47232;47.506;18.936;2022-11-04T02:58:53;97907.30;;;11.35;76.74
61361;BME280;47232;47.506;18.936;2022-11-04T03:01:19;97911.98;;;11.32;76.75
61361;BME280;47232;47.506;18.936;2022-11-04T03:03:54;97909.29;;;11.27;77.00
61361;BME280;47232;47.506;18.936;2022-11-04T03:06:22;97901.73;;;11.27;76.95
61361;BME280;47232;47.506;18.936;2022-11-04T03:08:51;97898.17;;;11.31;77.13
61361;BME280;47232;47.506;18.936;2022-11-04T03:11:26;97885.94;;;11.35;77.12
61361;BME280;47232;47.506;18.936;2022-11-04T03:14:02;97873.77;;;11.37;77.15
61361;BME280;47232;47.506;18.936;2022-11-04T03:18:59;97850.42;;;11.39;76.95
61361;BME280;47232;47.506;18.936;2022-11-04T03:21:27;97852.13;;;11.39;76.87
61361;BME280;47232;47.506;18.936;2022-11-04T03:23:55;97856.46;;;11.34;76.94
61361;BME280;47232;47.506;18.936;2022-11-04T03:26:30;97850.38;;;11.29;76.98
61361;BME280;47232;47.506;18.936;2022-11-04T03:31:35;97831.59;;;11.23;77.14
61361;BME280;47232;47.506;18.936;2022-11-04T03:34:05;97840.46;;;11.20;77.13
61361;BME280;47232;47.506;18.936;2022-11-04T03:36:30;97845.33;;;11.18;77.33
61361;BME280;47232;47.506;18.936;2022-11-04T03:38:55;97841.09;;;11.16;77.27
61361;BME280;47232;47.506;18.936;2022-11-04T03:41:33;97837.65;;;11.13;77.33
61361;BME280;47232;47.506;18.936;2022-11-04T03:44:00;97831.10;;;11.11;77.55
61361;BME280;47232;47.506;18.936;2022-11-04T03:46:25;97826.16;;;11.12;77.61
61361;BME280;47232;47.506;18.936;2022-11-04T03:48:54;97820.75;;;11.14;77.59
61361;BME280;47232;47.506;18.936;2022-11-04T03:51:21;97814.67;;;11.14;77.66
61361;BME280;47232;47.506;18.936;2022-11-04T03:53:47;97812.01;;;11.14;77.66
61361;BME280;47232;47.506;18.936;2022-11-04T04:01:54;97783.89;;;10.99;77.79
61361;BME280;47232;47.506;18.936;2022-11-04T04:04:33;97771.32;;;10.91;77.96
61361;BME280;47232;47.506;18.936;2022-11-04T04:07:10;97768.23;;;10.85;78.06
61361;BME280;47232;47.506;18.936;2022-11-04T04:09:41;97767.75;;;10.83;78.18
61361;BME280;47232;47.506;18.936;2022-11-04T04:14:52;97769.24;;;10.77;78.40
61361;BME280;47232;47.506;18.936;2022-11-04T04:17:34;97771.30;;;10.75;78.56
61361;BME280;47232;47.506;18.936;2022-11-04T04:20:15;97777.40;;;10.73;78.54
61361;BME280;47232;47.506;18.936;2022-11-04T04:22:46;97777.10;;;10.72;78.74
61361;BME280;47232;47.506;18.936;2022-11-04T04:25:16;97780.58;;;10.72;78.85
61361;BME280;47232;47.506;18.936;2022-11-04T04:28:02;97775.96;;;10.76;78.90
61361;BME280;47232;47.506;18.936;2022-11-04T04:30:29;97783.88;;;10.79;78.90
61361;BME280;47232;47.506;18.936;2022-11-04T04:32:58;97773.36;;;10.84;78.89
61361;BME280;47232;47.506;18.936;2022-11-04T04:35:32;97772.73;;;10.90;78.87
61361;BME280;47232;47.506;18.936;2022-11-04T04:38:18;97771.54;;;10.93;78.77
61361;BME280;47232;47.506;18.936;2022-11-04T04:41:30;97768.96;;;10.94;78.69
61361;BME280;47232;47.506;18.936;2022-11-04T04:44:26;97764.36;;;10.94;78.63
61361;BME280;47232;47.506;18.936;2022-11-04T04:47:14;97760.64;;;10.92;78.46
61361;BME280;47232;47.506;18.936;2022-11-04T04:49:55;97759.88;;;10.88;78.43
61361;BME280;47232;47.506;18.936;2022-11-04T04:52:23;97756.46;;;10.83;78.44
61361;BME280;47232;47.506;18.936;2022-11-04T04:54:49;97766.54;;;10.83;78.47
61361;BME280;47232;47.506;18.936;2022-11-04T04:57:15;97766.70;;;10.84;78.45
61361;BME280;47232;47.506;18.936;2022-11-04T04:59:40;97762.04;;;10.84;78.40
61361;BME280;47232;47.506;18.936;2022-11-04T05:02:05;97754.49;;;10.86;78.43
61361;BME280;47232;47.506;18.936;2022-11-04T05:04:31;97756.73;;;10.88;78.41
61361;BME280;47232;47.506;18.936;2022-11-04T05:06:56;97769.02;;;10.90;78.41
61361;BME280;47232;47.506;18.936;2022-11-04T05:09:22;97774.92;;;10.91;78.42
61361;BME280;47232;47.506;18.936;2022-11-04T05:11:47;97771.66;;;10.92;78.36
61361;BME280;47232;47.506;18.936;2022-11-04T05:14:12;97771.19;;;10.92;78.35
61361;BME280;47232;47.506;18.936;2022-11-04T05:16:38;97775.13;;;10.90;78.17
61361;BME280;47232;47.506;18.936;2022-11-04T05:19:03;97770.89;;;10.90;78.24
61361;BME280;47232;47.506;18.936;2022-11-04T05:21:29;97773.59;;;10.88;78.15
61361;BME280;47232;47.506;18.936;2022-11-04T05:23:54;97777.14;;;10.89;78.27
61361;BME280;47232;47.506;18.936;2022-11-04T05:26:19;97774.45;;;10.89;78.22
61361;BME280;47232;47.506;18.936;2022-11-04T05:28:45;97767.98;;;10.88;78.32
61361;BME280;47232;47.506;18.936;2022-11-04T05:31:11;97762.09;;;10.89;78.33
61361;BME280;47232;47.506;18.936;2022-11-04T05:33:36;97752.10;;;10.90;78.36
61361;BME280;47232;47.506;18.936;2022-11-04T05:36:09;97746.42;;;10.90;78.26
61361;BME280;47232;47.506;18.936;2022-11-04T05:38:35;97739.77;;;10.89;78.40
61361;BME280;47232;47.506;18.936;2022-11-04T05:41:01;97726.16;;;10.86;78.18
61361;BME280;47232;47.506;18.936;2022-11-04T05:43:27;97721.66;;;10.76;78.06
61361;BME280;47232;47.506;18.936;2022-11-04T05:45:53;97729.98;;;10.67;78.19
61361;BME280;47232;47.506;18.936;2022-11-04T05:48:18;97743.89;;;10.59;78.45
61361;BME280;47232;47.506;18.936;2022-11-04T05:50:45;97754.77;;;10.58;78.62
61361;BME280;47232;47.506;18.936;2022-11-04T05:53:10;97759.98;;;10.60;78.80
61361;BME280;47232;47.506;18.936;2022-11-04T05:55:35;97763.96;;;10.63;78.89
61361;BME280;47232;47.506;18.936;2022-11-04T05:58:01;97761.50;;;10.67;78.82
61361;BME280;47232;47.506;18.936;2022-11-04T06:00:26;97757.79;;;10.70;78.86
61361;BME280;47232;47.506;18.936;2022-11-04T06:02:53;97760.15;;;10.71;78.78
61361;BME280;47232;47.506;18.936;2022-11-04T06:05:22;97763.39;;;10.73;78.68
61361;BME280;47232;47.506;18.936;2022-11-04T06:07:47;97764.39;;;10.71;78.47
61361;BME280;47232;47.506;18.936;2022-11-04T06:10:13;97764.24;;;10.70;78.45
61361;BME280;47232;47.506;18.936;2022-11-04T06:12:38;97776.48;;;10.66;78.41
61361;BME280;47232;47.506;18.936;2022-11-04T06:15:04;97772.83;;;10.63;78.38
61361;BME280;47232;47.506;18.936;2022-11-04T06:17:30;97770.89;;;10.65;78.51
61361;BME280;47232;47.506;18.936;2022-11-04T06:19:55;97765.30;;;10.67;78.49
61361;BME280;47232;47.506;18.936;2022-11-04T06:22:21;97760.63;;;10.66;78.51
61361;BME280;47232;47.506;18.936;2022-11-04T06:24:47;97766.30;;;10.65;78.54
61361;BME280;47232;47.506;18.936;2022-11-04T06:27:12;97769.84;;;10.65;78.51
61361;BME280;47232;47.506;18.936;2022-11-04T06:29:38;97766.75;;;10.63;78.55
61361;BME280;47232;47.506;18.936;2022-11-04T06:32:10;97759.21;;;10.60;78.52
61361;BME280;47232;47.506;18.936;2022-11-04T06:34:36;97755.35;;;10.55;78.56
61361;BME280;47232;47.506;18.936;2022-11-04T06:37:02;97758.90;;;10.49;78.55
61361;BME280;47232;47.506;18.936;2022-11-04T06:39:27;97770.31;;;10.46;78.67
61361;BME280;47232;47.506;18.936;2022-11-04T06:41:53;97772.71;;;10.48;78.65
61361;BME280;47232;47.506;18.936;2022-11-04T06:44:18;97773.02;;;10.53;78.74
61361;BME280;47232;47.506;18.936;2022-11-04T06:46:43;97777.98;;;10.57;78.81
61361;BME280;47232;47.506;18.936;2022-11-04T06:49:20;97769.30;;;10.58;78.72
61361;BME280;47232;47.506;18.936;2022-11-04T06:51:47;97759.34;;;10.61;78.66
61361;BME280;47232;47.506;18.936;2022-11-04T06:54:14;97756.52;;;10.63;78.59
61361;BME280;47232;47.506;18.936;2022-11-04T06:56:41;97755.04;;;10.68;78.74
61361;BME280;47232;47.506;18.936;2022-11-04T06:59:07;97761.34;;;10.74;78.72
61361;BME280;47232;47.506;18.936;2022-11-04T07:01:35;97768.95;;;10.76;78.34
61361;BME280;47232;47.506;18.936;2022-11-04T07:04:01;97770.66;;;10.74;78.24
61361;BME280;47232;47.506;18.936;2022-11-04T07:06:29;97765.25;;;10.76;78.20
61361;BME280;47232;47.506;18.936;2022-11-04T07:08:57;97763.41;;;10.79;78.23
61361;BME280;47232;47.506;18.936;2022-11-04T07:11:24;97760.30;;;10.85;78.24
61361;BME280;47232;47.506;18.936;2022-11-04T07:13:50;97765.52;;;10.88;78.03
61361;BME280;47232;47.506;18.936;2022-11-04T07:16:16;97771.23;;;10.91;78.10
61361;BME280;47232;47.506;18.936;2022-11-04T07:18:41;97773.82;;;10.92;77.99
61361;BME280;47232;47.506;18.936;2022-11-04T07:21:07;97770.66;;;10.89;77.68
61361;BME280;47232;47.506;18.936;2022-11-04T07:23:33;97771.94;;;10.88;77.61
61361;BME280;47232;47.506;18.936;2022-11-04T07:26:00;97775.45;;;10.85;77.61
61361;BME280;47232;47.506;18.936;2022-11-04T07:28:25;97779.07;;;10.85;77.89
61361;BME280;47232;47.506;18.936;2022-11-04T07:30:51;97773.11;;;10.88;77.75
61361;BME280;47232;47.506;18.936;2022-11-04T07:33:16;97770.91;;;10.91;77.65
61361;BME280;47232;47.506;18.936;2022-11-04T07:35:42;97773.59;;;10.94;77.63
61361;BME280;47232;47.506;18.936;2022-11-04T07:38:09;97773.81;;;10.98;77.58
61361;BME280;47232;47.506;18.936;2022-11-04T07:40:35;97765.14;;;10.97;77.19
61361;BME280;47232;47.506;18.936;2022-11-04T07:43:00;97765.41;;;10.92;77.35
61361;BME280;47232;47.506;18.936;2022-11-04T07:45:26;97775.29;;;10.90;77.31
61361;BME280;47232;47.506;18.936;2022-11-04T07:47:51;97771.20;;;10.89;77.32
61361;BME280;47232;47.506;18.936;2022-11-04T07:50:17;97765.07;;;10.89;77.21
61361;BME280;47232;47.506;18.936;2022-11-04T07:52:42;97757.63;;;10.86;77.13
61361;BME280;47232;47.506;18.936;2022-11-04T07:55:08;97754.87;;;10.82;77.09
61361;BME280;47232;47.506;18.936;2022-11-04T07:57:34;97753.30;;;10.83;77.12
61361;BME280;47232;47.506;18.936;2022-11-04T08:00:01;97752.63;;;10.87;77.01
61361;BME280;47232;47.506;18.936;2022-11-04T08:02:26;97750.13;;;10.91;77.15
61361;BME280;47232;47.506;18.936;2022-11-04T08:04:51;97742.89;;;10.92;76.94
61361;BME280;47232;47.506;18.936;2022-11-04T08:07:17;97744.42;;;10.95;76.82
61361;BME280;47232;47.506;18.936;2022-11-04T08:09:42;97747.02;;;10.96;76.78
61361;BME280;47232;47.506;18.936;2022-11-04T08:12:08;97752.73;;;10.98;76.70
61361;BME280;47232;47.506;18.936;2022-11-04T08:14:33;97749.65;;;10.96;76.45
61361;BME280;47232;47.506;18.936;2022-11-04T08:16:58;97743.23;;;10.94;76.62
61361;BME280;47232;47.506;18.936;2022-11-04T08:19:24;97740.19;;;10.92;76.44
61361;BME280;47232;47.506;18.936;2022-11-04T08:21:49;97735.94;;;10.94;76.57
61361;BME280;47232;47.506;18.936;2022-11-04T08:24:15;97738.64;;;10.98;76.44
61361;BME280;47232;47.506;18.936;2022-11-04T08:26:40;97737.64;;;11.02;76.41
61361;BME280;47232;47.506;18.936;2022-11-04T08:29:07;97732.11;;;11.04;76.47
61361;BME280;47232;47.506;18.936;2022-11-04T08:31:32;97739.30;;;11.08;76.46
61361;BME280;47232;47.506;18.936;2022-11-04T08:33:58;97731.96;;;11.11;76.37
61361;BME280;47232;47.506;18.936;2022-11-04T08:36:27;97725.53;;;11.14;76.20
61361;BME280;47232;47.506;18.936;2022-11-04T08:38:53;97723.17;;;11.15;76.06
61361;BME280;47232;47.506;18.936;2022-11-04T08:41:22;97725.17;;;11.17;76.05
61361;BME280;47232;47.506;18.936;2022-11-04T08:43:48;97726.21;;;11.16;75.84
61361;BME280;47232;47.506;18.936;2022-11-04T08:46:14;97728.64;;;11.13;75.84
61361;BME280;47232;47.506;18.936;2022-11-04T08:48:41;97725.41;;;11.09;75.78
61361;BME280;47232;47.506;18.936;2022-11-04T08:51:13;97719.20;;;11.08;75.83
61361;BME280;47232;47.506;18.936;2022-11-04T08:53:38;97716.58;;;11.07;75.70
61361;BME280;47232;47.506;18.936;2022-11-04T08:56:34;97713.98;;;11.10;75.74
61361;BME280;47232;47.506;18.936;2022-11-04T08:59:00;97715.19;;;11.17;75.77
61361;BME280;47232;47.506;18.936;2022-11-04T09:01:28;97717.75;;;11.24;75.71
61361;BME280;47232;47.506;18.936;2022-11-04T09:03:54;97709.34;;;11.30;75.35
61361;BME280;47232;47.506;18.936;2022-11-04T09:06:26;97702.58;;;11.35;75.30
61361;BME280;47232;47.506;18.936;2022-11-04T09:08:52;97702.51;;;11.39;75.28
61361;BME280;47232;47.506;18.936;2022-11-04T09:11:21;97703.30;;;11.42;75.21
61361;BME280;47232;47.506;18.936;2022-11-04T09:13:47;97691.09;;;11.43;75.16
61361;BME280;47232;47.506;18.936;2022-11-04T09:16:13;97687.91;;;11.43;75.37
61361;BME280;47232;47.506;18.936;2022-11-04T09:18:40;97689.18;;;11.43;75.35
61361;BME280;47232;47.506;18.936;2022-11-04T09:21:07;97682.29;;;11.43;75.46
61361;BME280;47232;47.506;18.936;2022-11-04T09:23:34;97682.64;;;11.44;75.44
61361;BME280;47232;47.506;18.936;2022-11-04T09:26:05;97690.39;;;11.45;75.31
61361;BME280;47232;47.506;18.936;2022-11-04T09:28:30;97691.59;;;11.46;75.19
61361;BME280;47232;47.506;18.936;2022-11-04T09:30:56;97683.43;;;11.47;75.27
61361;BME280;47232;47.506;18.936;2022-11-04T09:33:21;97687.17;;;11.45;75.34
61361;BME280;47232;47.506;18.936;2022-11-04T09:35:56;97686.10;;;11.46;75.30
61361;BME280;47232;47.506;18.936;2022-11-04T09:38:22;97684.73;;;11.47;75.33
61361;BME280;47232;47.506;18.936;2022-11-04T09:40:48;97678.00;;;11.45;75.34
61361;BME280;47232;47.506;18.936;2022-11-04T09:43:36;97665.05;;;11.43;75.28
61361;BME280;47232;47.506;18.936;2022-11-04T09:46:09;97659.73;;;11.41;75.46
61361;BME280;47232;47.506;18.936;2022-11-04T09:48:46;97664.80;;;11.40;75.57
61361;BME280;47232;47.506;18.936;2022-11-04T09:51:13;97664.88;;;11.38;75.49
61361;BME280;47232;47.506;18.936;2022-11-04T09:53:47;97663.46;;;11.39;75.37
61361;BME280;47232;47.506;18.936;2022-11-04T09:56:32;97652.13;;;11.41;75.23
61361;BME280;47232;47.506;18.936;2022-11-04T09:59:01;97641.73;;;11.43;75.22
61361;BME280;47232;47.506;18.936;2022-11-04T10:01:54;97636.66;;;11.46;75.34
61361;BME280;47232;47.506;18.936;2022-11-04T10:04:29;97637.27;;;11.46;75.37
61361;BME280;47232;47.506;18.936;2022-11-04T10:21:03;97613.14;;;11.27;75.86
61361;BME280;47232;47.506;18.936;2022-11-04T10:23:47;97616.75;;;11.24;75.93
61361;BME280;47232;47.506;18.936;2022-11-04T10:29:22;97596.17;;;11.26;75.87
61361;BME280;47232;47.506;18.936;2022-11-04T10:31:50;97597.10;;;11.26;76.19
61361;BME280;47232;47.506;18.936;2022-11-04T10:34:28;97599.88;;;11.28;76.14
61361;BME280;47232;47.506;18.936;2022-11-04T10:36:56;97598.75;;;11.29;75.88
61361;BME280;47232;47.506;18.936;2022-11-04T10:39:28;97601.17;;;11.28;75.78
61361;BME280;47232;47.506;18.936;2022-11-04T10:41:55;97605.27;;;11.27;76.01
61361;BME280;47232;47.506;18.936;2022-11-04T10:44:27;97602.89;;;11.27;75.99
61361;BME280;47232;47.506;18.936;2022-11-04T10:47:05;97598.19;;;11.29;75.86
61361;BME280;47232;47.506;18.936;2022-11-04T10:52:11;97586.16;;;11.37;75.94
61361;BME280;47232;47.506;18.936;2022-11-04T10:54:43;97582.79;;;11.40;76.21
61361;BME280;47232;47.506;18.936;2022-11-04T10:57:10;97572.27;;;11.46;76.12
61361;BME280;47232;47.506;18.936;2022-11-04T10:59:56;97571.92;;;11.47;75.91
61361;BME280;47232;47.506;18.936;2022-11-04T11:07:44;97561.73;;;11.51;75.77
61361;BME280;47232;47.506;18.936;2022-11-04T11:13:22;97572.95;;;11.65;75.65
61361;BME280;47232;47.506;18.936;2022-11-04T11:15:48;97569.98;;;11.75;75.44
61361;BME280;47232;47.506;18.936;2022-11-04T11:18:17;97574.45;;;11.82;75.02
61361;BME280;47232;47.506;18.936;2022-11-04T11:21:02;97573.36;;;11.86;75.16
61361;BME280;47232;47.506;18.936;2022-11-04T11:23:48;97571.29;;;11.91;74.94
61361;BME280;47232;47.506;18.936;2022-11-04T11:26:18;97570.52;;;11.95;74.80
61361;BME280;47232;47.506;18.936;2022-11-04T11:28:49;97562.37;;;11.99;74.26
61361;BME280;47232;47.506;18.936;2022-11-04T11:31:17;97563.17;;;12.02;74.06
61361;BME280;47232;47.506;18.936;2022-11-04T11:33:55;97562.76;;;12.06;74.03
61361;BME280;47232;47.506;18.936;2022-11-04T11:36:30;97563.73;;;12.11;74.26
61361;BME280;47232;47.506;18.936;2022-11-04T11:41:49;97566.16;;;12.19;74.63
61361;BME280;47232;47.506;18.936;2022-11-04T11:44:35;97562.80;;;12.25;74.39
61361;BME280;47232;47.506;18.936;2022-11-04T11:52:37;97555.02;;;12.36;74.24
61361;BME280;47232;47.506;18.936;2022-11-04T11:55:21;97550.63;;;12.37;73.95
61361;BME280;47232;47.506;18.936;2022-11-04T12:00:59;97524.80;;;12.39;74.04
61361;BME280;47232;47.506;18.936;2022-11-04T12:28:02;97466.81;;;12.60;73.46
61361;BME280;47232;47.506;18.936;2022-11-04T12:30:49;97460.36;;;12.56;73.23
61361;BME280;47232;47.506;18.936;2022-11-04T12:41:26;97428.13;;;12.76;73.31
61361;BME280;47232;47.506;18.936;2022-11-04T12:50:08;97434.73;;;12.87;72.86
61361;BME280;47232;47.506;18.936;2022-11-04T13:01:01;97428.30;;;12.65;72.59
61361;BME280;47232;47.506;18.936;2022-11-04T13:04:03;97426.41;;;12.60;72.58
61361;BME280;47232;47.506;18.936;2022-11-04T13:06:53;97420.98;;;12.54;72.66
61361;BME280;47232;47.506;18.936;2022-11-04T13:09:30;97421.48;;;12.56;73.05
61361;BME280;47232;47.506;18.936;2022-11-04T13:12:05;97423.13;;;12.59;73.03
61361;BME280;47232;47.506;18.936;2022-11-04T13:14:55;97416.94;;;12.61;72.96
61361;BME280;47232;47.506;18.936;2022-11-04T13:17:31;97412.08;;;12.61;72.84
61361;BME280;47232;47.506;18.936;2022-11-04T13:20:02;97405.96;;;12.61;72.88
61361;BME280;47232;47.506;18.936;2022-11-04T13:22:35;97406.40;;;12.60;72.89
61361;BME280;47232;47.506;18.936;2022-11-04T13:25:03;97405.84;;;12.59;72.85
61361;BME280;47232;47.506;18.936;2022-11-04T13:27:34;97405.08;;;12.51;72.82
61361;BME280;47232;47.506;18.936;2022-11-04T13:35:52;97403.04;;;12.28;73.23
61361;BME280;47232;47.506;18.936;2022-11-04T13:38:45;97404.40;;;12.25;73.25
61361;BME280;47232;47.506;18.936;2022-11-04T13:44:28;97395.86;;;12.23;73.58
61361;BME280;47232;47.506;18.936;2022-11-04T13:46:58;97394.02;;;12.21;73.58
61361;BME280;47232;47.506;18.936;2022-11-04T13:49:28;97399.69;;;12.14;73.60
61361;BME280;47232;47.506;18.936;2022-11-04T13:52:10;97406.96;;;12.10;73.69
61361;BME280;47232;47.506;18.936;2022-11-04T13:54:40;97409.41;;;12.06;73.92
61361;BME280;47232;47.506;18.936;2022-11-04T13:59:40;97406.88;;;11.98;73.93
61361;BME280;47232;47.506;18.936;2022-11-04T14:04:38;97392.99;;;11.90;74.11
61361;BME280;47232;47.506;18.936;2022-11-04T14:07:14;97394.73;;;11.89;74.40
61361;BME280;47232;47.506;18.936;2022-11-04T14:14:46;97392.68;;;11.92;74.61
61361;BME280;47232;47.506;18.936;2022-11-04T14:20:28;97394.77;;;11.84;74.98
61361;BME280;47232;47.506;18.936;2022-11-04T14:23:04;97389.80;;;11.81;75.09
61361;BME280;47232;47.506;18.936;2022-11-04T14:25:36;97380.05;;;11.80;75.23
61361;BME280;47232;47.506;18.936;2022-11-04T14:30:45;97362.65;;;11.81;75.34
61361;BME280;47232;47.506;18.936;2022-11-04T14:35:50;97354.64;;;11.83;75.38
61361;BME280;47232;47.506;18.936;2022-11-04T14:38:24;97375.34;;;11.77;75.50
61361;BME280;47232;47.506;18.936;2022-11-04T14:41:21;97384.34;;;11.74;75.67
61361;BME280;47232;47.506;18.936;2022-11-04T14:43:45;97373.71;;;11.71;75.86
61361;BME280;47232;47.506;18.936;2022-11-04T14:46:18;97362.89;;;11.68;75.93
61361;BME280;47232;47.506;18.936;2022-11-04T14:48:47;97353.36;;;11.66;76.02
61361;BME280;47232;47.506;18.936;2022-11-04T14:51:28;97341.63;;;11.62;76.07
61361;BME280;47232;47.506;18.936;2022-11-04T14:54:08;97338.80;;;11.55;76.10
61361;BME280;47232;47.506;18.936;2022-11-04T14:56:34;97342.62;;;11.46;76.50
61361;BME280;47232;47.506;18.936;2022-11-04T14:59:04;97341.27;;;11.39;76.66
61361;BME280;47232;47.506;18.936;2022-11-04T15:01:36;97339.52;;;11.38;76.91
61361;BME280;47232;47.506;18.936;2022-11-04T15:04:07;97338.55;;;11.37;77.04
61361;BME280;47232;47.506;18.936;2022-11-04T15:06:37;97337.30;;;11.36;77.23
61361;BME280;47232;47.506;18.936;2022-11-04T15:09:03;97344.10;;;11.34;77.43
61361;BME280;47232;47.506;18.936;2022-11-04T15:11:29;97348.66;;;11.35;77.67
61361;BME280;47232;47.506;18.936;2022-11-04T15:14:21;97345.59;;;11.35;77.80
61361;BME280;47232;47.506;18.936;2022-11-04T15:16:50;97341.92;;;11.36;77.84
61361;BME280;47232;47.506;18.936;2022-11-04T15:19:26;97341.97;;;11.32;77.89
61361;BME280;47232;47.506;18.936;2022-11-04T15:21:52;97345.60;;;11.27;77.88
61361;BME280;47232;47.506;18.936;2022-11-04T15:24:18;97342.61;;;11.25;78.16
61361;BME280;47232;47.506;18.936;2022-11-04T15:26:49;97333.46;;;11.26;78.15
61361;BME280;47232;47.506;18.936;2022-11-04T15:29:15;97331.83;;;11.28;78.20
61361;BME280;47232;47.506;18.936;2022-11-04T15:31:55;97327.27;;;11.30;78.48
61361;BME280;47232;47.506;18.936;2022-11-04T15:34:22;97326.29;;;11.31;78.50
61361;BME280;47232;47.506;18.936;2022-11-04T15:36:49;97327.98;;;11.30;78.51
61361;BME280;47232;47.506;18.936;2022-11-04T15:39:21;97323.28;;;11.30;78.77
61361;BME280;47232;47.506;18.936;2022-11-04T15:41:51;97327.77;;;11.28;78.71
61361;BME280;47232;47.506;18.936;2022-11-04T15:44:37;97333.02;;;11.26;78.83